Terminal Aerodrome Forecast
Issued by NWS Pocatello, ID

Home | Current Version | Previous Version | Text Only | Print | Product List | Glossary On
Versions: 1 2 3 4 5 6 7 8 9 10 11 12 13 14 15 16 17 18
000
FTUS45 KPIH 211600 AAA
TAFBYI
TAF AMD
KBYI 211622Z 2116/2212 26025G35KT P6SM VCSH FEW025 OVC035
     FM220200 25017KT P6SM VCSH BKN040
     FM220600 25014KT P6SM VCSH SCT005 BKN015=

USA.gov is the U.S. government's official web portal to all federal, state and local government web resources and services.